sensor_id;sensor_type;location;lat;lon;timestamp;P1;durP1;ratioP1;P2;durP2;ratioP2
64487;SDS011;50864;45.050;39.014;2022-09-03T00:00:01;10.93;;;8.75;;
64487;SDS011;50864;45.050;39.014;2022-09-03T00:02:37;11.10;;;8.52;;
64487;SDS011;50864;45.050;39.014;2022-09-03T00:05:16;20.27;;;14.32;;
64487;SDS011;50864;45.050;39.014;2022-09-03T00:10:38;17.85;;;12.77;;
64487;SDS011;50864;45.050;39.014;2022-09-03T00:13:12;12.10;;;7.93;;
64487;SDS011;50864;45.050;39.014;2022-09-03T00:15:42;29.90;;;16.62;;
64487;SDS011;50864;45.050;39.014;2022-09-03T00:18:11;14.90;;;9.05;;
64487;SDS011;50864;45.050;39.014;2022-09-03T00:20:50;7.78;;;6.05;;
64487;SDS011;50864;45.050;39.014;2022-09-03T00:23:25;13.98;;;11.43;;
64487;SDS011;50864;45.050;39.014;2022-09-03T00:25:57;12.98;;;10.27;;
64487;SDS011;50864;45.050;39.014;2022-09-03T00:28:48;25.20;;;16.02;;
64487;SDS011;50864;45.050;39.014;2022-09-03T00:31:19;32.30;;;20.17;;
64487;SDS011;50864;45.050;39.014;2022-09-03T00:33:53;19.95;;;15.18;;
64487;SDS011;50864;45.050;39.014;2022-09-03T00:36:38;21.25;;;15.43;;
64487;SDS011;50864;45.050;39.014;2022-09-03T00:39:10;37.22;;;21.80;;
64487;SDS011;50864;45.050;39.014;2022-09-03T00:42:02;24.83;;;18.98;;
64487;SDS011;50864;45.050;39.014;2022-09-03T00:56:17;53.25;;;31.37;;
64487;SDS011;50864;45.050;39.014;2022-09-03T01:04:58;48.92;;;32.72;;
64487;SDS011;50864;45.050;39.014;2022-09-03T01:07:28;37.50;;;29.23;;
64487;SDS011;50864;45.050;39.014;2022-09-03T01:10:25;51.90;;;34.05;;
64487;SDS011;50864;45.050;39.014;2022-09-03T01:13:04;73.05;;;41.08;;
64487;SDS011;50864;45.050;39.014;2022-09-03T01:15:48;36.15;;;28.70;;
64487;SDS011;50864;45.050;39.014;2022-09-03T01:18:35;46.08;;;35.30;;
64487;SDS011;50864;45.050;39.014;2022-09-03T01:21:34;51.17;;;37.00;;
64487;SDS011;50864;45.050;39.014;2022-09-03T01:30:07;67.78;;;42.22;;
64487;SDS011;50864;45.050;39.014;2022-09-03T01:38:24;69.25;;;43.03;;
64487;SDS011;50864;45.050;39.014;2022-09-03T01:41:07;106.47;;;51.15;;
64487;SDS011;50864;45.050;39.014;2022-09-03T01:46:49;102.40;;;50.33;;
64487;SDS011;50864;45.050;39.014;2022-09-03T01:49:30;92.30;;;48.65;;
64487;SDS011;50864;45.050;39.014;2022-09-03T01:52:14;58.72;;;36.88;;
64487;SDS011;50864;45.050;39.014;2022-09-03T02:00:44;82.20;;;46.37;;
64487;SDS011;50864;45.050;39.014;2022-09-03T02:03:16;135.73;;;57.97;;
64487;SDS011;50864;45.050;39.014;2022-09-03T02:05:43;89.53;;;48.22;;
64487;SDS011;50864;45.050;39.014;2022-09-03T02:08:11;88.12;;;48.38;;
64487;SDS011;50864;45.050;39.014;2022-09-03T02:13:23;127.38;;;56.05;;
64487;SDS011;50864;45.050;39.014;2022-09-03T02:15:56;91.70;;;48.92;;
64487;SDS011;50864;45.050;39.014;2022-09-03T02:18:26;85.28;;;47.85;;
64487;SDS011;50864;45.050;39.014;2022-09-03T02:20:55;115.15;;;54.38;;
64487;SDS011;50864;45.050;39.014;2022-09-03T02:23:23;125.68;;;56.35;;
64487;SDS011;50864;45.050;39.014;2022-09-03T02:25:51;123.40;;;55.58;;
64487;SDS011;50864;45.050;39.014;2022-09-03T02:28:21;153.77;;;62.83;;
64487;SDS011;50864;45.050;39.014;2022-09-03T02:30:48;44.95;;;34.05;;
64487;SDS011;50864;45.050;39.014;2022-09-03T02:33:15;29.15;;;22.85;;
64487;SDS011;50864;45.050;39.014;2022-09-03T02:35:41;23.58;;;20.98;;
64487;SDS011;50864;45.050;39.014;2022-09-03T02:41:06;197.55;;;72.12;;
64487;SDS011;50864;45.050;39.014;2022-09-03T02:46:38;110.25;;;53.40;;
64487;SDS011;50864;45.050;39.014;2022-09-03T02:49:08;118.62;;;55.55;;
64487;SDS011;50864;45.050;39.014;2022-09-03T02:51:35;58.25;;;29.02;;
64487;SDS011;50864;45.050;39.014;2022-09-03T02:54:03;58.03;;;36.30;;
64487;SDS011;50864;45.050;39.014;2022-09-03T02:56:30;29.77;;;23.60;;
64487;SDS011;50864;45.050;39.014;2022-09-03T02:58:59;72.18;;;42.53;;
64487;SDS011;50864;45.050;39.014;2022-09-03T03:01:26;22.33;;;16.27;;
64487;SDS011;50864;45.050;39.014;2022-09-03T03:03:52;21.52;;;12.57;;
64487;SDS011;50864;45.050;39.014;2022-09-03T03:06:19;9.90;;;5.15;;
64487;SDS011;50864;45.050;39.014;2022-09-03T03:08:46;13.60;;;7.37;;
64487;SDS011;50864;45.050;39.014;2022-09-03T03:11:12;16.87;;;11.95;;
64487;SDS011;50864;45.050;39.014;2022-09-03T03:13:43;11.40;;;6.60;;
64487;SDS011;50864;45.050;39.014;2022-09-03T03:16:10;13.95;;;10.38;;
64487;SDS011;50864;45.050;39.014;2022-09-03T03:18:38;12.13;;;7.10;;
64487;SDS011;50864;45.050;39.014;2022-09-03T03:21:05;13.02;;;9.00;;
64487;SDS011;50864;45.050;39.014;2022-09-03T03:23:36;21.05;;;14.15;;
64487;SDS011;50864;45.050;39.014;2022-09-03T03:26:04;16.00;;;10.30;;
64487;SDS011;50864;45.050;39.014;2022-09-03T03:28:31;12.65;;;10.63;;
64487;SDS011;50864;45.050;39.014;2022-09-03T03:31:08;18.00;;;12.98;;
64487;SDS011;50864;45.050;39.014;2022-09-03T03:33:37;18.45;;;16.60;;
64487;SDS011;50864;45.050;39.014;2022-09-03T03:38:34;21.80;;;17.37;;
64487;SDS011;50864;45.050;39.014;2022-09-03T03:41:10;45.58;;;27.40;;
64487;SDS011;50864;45.050;39.014;2022-09-03T03:43:40;28.33;;;22.65;;
64487;SDS011;50864;45.050;39.014;2022-09-03T03:46:06;28.58;;;24.75;;
64487;SDS011;50864;45.050;39.014;2022-09-03T03:48:33;46.13;;;31.55;;
64487;SDS011;50864;45.050;39.014;2022-09-03T03:51:00;28.27;;;18.65;;
64487;SDS011;50864;45.050;39.014;2022-09-03T03:53:32;34.05;;;19.98;;
64487;SDS011;50864;45.050;39.014;2022-09-03T03:56:00;19.75;;;17.80;;
64487;SDS011;50864;45.050;39.014;2022-09-03T03:58:28;49.22;;;29.45;;
64487;SDS011;50864;45.050;39.014;2022-09-03T04:01:02;25.70;;;17.85;;
64487;SDS011;50864;45.050;39.014;2022-09-03T04:03:33;21.17;;;13.57;;
64487;SDS011;50864;45.050;39.014;2022-09-03T04:06:00;31.23;;;18.87;;
64487;SDS011;50864;45.050;39.014;2022-09-03T04:08:27;23.23;;;14.38;;
64487;SDS011;50864;45.050;39.014;2022-09-03T04:10:57;11.02;;;7.15;;
64487;SDS011;50864;45.050;39.014;2022-09-03T04:13:29;13.40;;;7.60;;
64487;SDS011;50864;45.050;39.014;2022-09-03T04:16:06;14.85;;;9.57;;
64487;SDS011;50864;45.050;39.014;2022-09-03T04:18:35;15.27;;;9.88;;
64487;SDS011;50864;45.050;39.014;2022-09-03T04:21:03;22.00;;;12.98;;
64487;SDS011;50864;45.050;39.014;2022-09-03T04:23:34;9.10;;;6.45;;
64487;SDS011;50864;45.050;39.014;2022-09-03T04:26:03;15.80;;;9.63;;
64487;SDS011;50864;45.050;39.014;2022-09-03T04:28:29;11.10;;;4.90;;
64487;SDS011;50864;45.050;39.014;2022-09-03T04:31:00;17.30;;;10.65;;
64487;SDS011;50864;45.050;39.014;2022-09-03T04:33:36;11.65;;;5.53;;
64487;SDS011;50864;45.050;39.014;2022-09-03T04:36:07;12.50;;;6.20;;
64487;SDS011;50864;45.050;39.014;2022-09-03T04:38:37;16.87;;;10.32;;
64487;SDS011;50864;45.050;39.014;2022-09-03T04:41:05;21.00;;;9.35;;
64487;SDS011;50864;45.050;39.014;2022-09-03T04:43:33;6.97;;;4.47;;
64487;SDS011;50864;45.050;39.014;2022-09-03T04:46:02;7.72;;;5.57;;
64487;SDS011;50864;45.050;39.014;2022-09-03T04:48:31;9.80;;;6.12;;
64487;SDS011;50864;45.050;39.014;2022-09-03T04:51:03;12.43;;;7.00;;
64487;SDS011;50864;45.050;39.014;2022-09-03T04:53:33;16.75;;;10.80;;
64487;SDS011;50864;45.050;39.014;2022-09-03T04:56:00;15.77;;;10.00;;
64487;SDS011;50864;45.050;39.014;2022-09-03T04:58:27;21.02;;;12.15;;
64487;SDS011;50864;45.050;39.014;2022-09-03T05:00:53;11.35;;;5.97;;
64487;SDS011;50864;45.050;39.014;2022-09-03T05:03:20;8.40;;;5.93;;
64487;SDS011;50864;45.050;39.014;2022-09-03T05:05:53;16.02;;;9.38;;
64487;SDS011;50864;45.050;39.014;2022-09-03T05:08:20;9.23;;;4.87;;
64487;SDS011;50864;45.050;39.014;2022-09-03T05:10:47;14.75;;;9.32;;
64487;SDS011;50864;45.050;39.014;2022-09-03T05:13:13;15.75;;;8.35;;
64487;SDS011;50864;45.050;39.014;2022-09-03T05:15:40;17.02;;;9.40;;
64487;SDS011;50864;45.050;39.014;2022-09-03T05:18:09;19.33;;;4.35;;
64487;SDS011;50864;45.050;39.014;2022-09-03T05:20:36;8.10;;;3.85;;
64487;SDS011;50864;45.050;39.014;2022-09-03T05:23:02;15.68;;;8.50;;
64487;SDS011;50864;45.050;39.014;2022-09-03T05:25:29;8.88;;;4.32;;
64487;SDS011;50864;45.050;39.014;2022-09-03T05:27:58;16.92;;;8.40;;
64487;SDS011;50864;45.050;39.014;2022-09-03T05:30:25;14.45;;;8.32;;
64487;SDS011;50864;45.050;39.014;2022-09-03T05:32:51;9.02;;;4.43;;
64487;SDS011;50864;45.050;39.014;2022-09-03T05:35:17;9.00;;;4.97;;
64487;SDS011;50864;45.050;39.014;2022-09-03T05:37:44;6.10;;;3.05;;
64487;SDS011;50864;45.050;39.014;2022-09-03T05:40:10;10.48;;;3.33;;
64487;SDS011;50864;45.050;39.014;2022-09-03T05:42:37;12.70;;;5.90;;
64487;SDS011;50864;45.050;39.014;2022-09-03T05:45:07;10.80;;;3.65;;
64487;SDS011;50864;45.050;39.014;2022-09-03T05:47:36;7.90;;;3.53;;
64487;SDS011;50864;45.050;39.014;2022-09-03T05:50:05;11.30;;;4.55;;
64487;SDS011;50864;45.050;39.014;2022-09-03T05:52:33;9.93;;;4.10;;
64487;SDS011;50864;45.050;39.014;2022-09-03T05:55:01;11.77;;;3.83;;
64487;SDS011;50864;45.050;39.014;2022-09-03T05:57:27;10.60;;;3.60;;
64487;SDS011;50864;45.050;39.014;2022-09-03T05:59:55;13.68;;;6.30;;
64487;SDS011;50864;45.050;39.014;2022-09-03T06:02:21;13.13;;;5.07;;
64487;SDS011;50864;45.050;39.014;2022-09-03T06:04:48;15.32;;;7.15;;
64487;SDS011;50864;45.050;39.014;2022-09-03T06:07:15;12.15;;;3.95;;
64487;SDS011;50864;45.050;39.014;2022-09-03T06:09:41;18.10;;;7.07;;
64487;SDS011;50864;45.050;39.014;2022-09-03T06:12:08;12.35;;;6.37;;
64487;SDS011;50864;45.050;39.014;2022-09-03T06:14:34;9.30;;;3.92;;
64487;SDS011;50864;45.050;39.014;2022-09-03T06:17:00;13.43;;;4.50;;
64487;SDS011;50864;45.050;39.014;2022-09-03T06:19:26;9.05;;;4.40;;
64487;SDS011;50864;45.050;39.014;2022-09-03T06:21:53;14.25;;;9.18;;
64487;SDS011;50864;45.050;39.014;2022-09-03T06:24:20;20.98;;;9.63;;
64487;SDS011;50864;45.050;39.014;2022-09-03T06:26:52;16.75;;;8.75;;
64487;SDS011;50864;45.050;39.014;2022-09-03T06:29:18;21.27;;;10.05;;
64487;SDS011;50864;45.050;39.014;2022-09-03T06:31:44;20.62;;;9.18;;
64487;SDS011;50864;45.050;39.014;2022-09-03T19:21:28;27.15;;;14.95;;
64487;SDS011;50864;45.050;39.014;2022-09-03T19:24:19;27.02;;;10.95;;
64487;SDS011;50864;45.050;39.014;2022-09-03T19:42:40;16.85;;;6.90;;
64487;SDS011;50864;45.050;39.014;2022-09-03T19:45:35;19.23;;;7.25;;
64487;SDS011;50864;45.050;39.014;2022-09-03T19:51:34;13.73;;;7.85;;
64487;SDS011;50864;45.050;39.014;2022-09-03T19:54:35;24.02;;;12.85;;
64487;SDS011;50864;45.050;39.014;2022-09-03T19:57:21;23.45;;;13.25;;
64487;SDS011;50864;45.050;39.014;2022-09-03T20:00:07;28.20;;;15.15;;
64487;SDS011;50864;45.050;39.014;2022-09-03T20:02:53;24.27;;;11.23;;
64487;SDS011;50864;45.050;39.014;2022-09-03T20:05:38;24.20;;;11.77;;
64487;SDS011;50864;45.050;39.014;2022-09-03T20:08:22;26.55;;;14.90;;
64487;SDS011;50864;45.050;39.014;2022-09-03T20:11:18;33.50;;;16.73;;
64487;SDS011;50864;45.050;39.014;2022-09-03T20:13:48;31.73;;;16.67;;
64487;SDS011;50864;45.050;39.014;2022-09-03T20:16:39;28.20;;;14.25;;
64487;SDS011;50864;45.050;39.014;2022-09-03T20:22:17;18.85;;;5.72;;
64487;SDS011;50864;45.050;39.014;2022-09-03T20:30:49;16.37;;;8.02;;
64487;SDS011;50864;45.050;39.014;2022-09-03T20:36:35;32.10;;;15.63;;
64487;SDS011;50864;45.050;39.014;2022-09-03T20:41:53;29.00;;;13.18;;
64487;SDS011;50864;45.050;39.014;2022-09-03T20:50:00;27.90;;;11.77;;
64487;SDS011;50864;45.050;39.014;2022-09-03T20:55:19;34.50;;;16.33;;
64487;SDS011;50864;45.050;39.014;2022-09-03T20:58:13;16.75;;;5.97;;
64487;SDS011;50864;45.050;39.014;2022-09-03T21:03:43;14.33;;;9.40;;
64487;SDS011;50864;45.050;39.014;2022-09-03T21:15:28;29.10;;;14.50;;
64487;SDS011;50864;45.050;39.014;2022-09-03T21:26:38;50.42;;;29.50;;
64487;SDS011;50864;45.050;39.014;2022-09-03T21:32:09;48.45;;;30.10;;
64487;SDS011;50864;45.050;39.014;2022-09-03T21:34:54;50.55;;;29.33;;
64487;SDS011;50864;45.050;39.014;2022-09-03T21:37:29;35.47;;;22.37;;
64487;SDS011;50864;45.050;39.014;2022-09-03T21:40:00;16.00;;;10.70;;
64487;SDS011;50864;45.050;39.014;2022-09-03T21:42:36;44.22;;;24.23;;
64487;SDS011;50864;45.050;39.014;2022-09-03T21:45:13;28.05;;;15.93;;
64487;SDS011;50864;45.050;39.014;2022-09-03T21:47:59;28.02;;;20.37;;
64487;SDS011;50864;45.050;39.014;2022-09-03T21:50:45;34.53;;;22.13;;
64487;SDS011;50864;45.050;39.014;2022-09-03T21:53:17;43.80;;;25.90;;
64487;SDS011;50864;45.050;39.014;2022-09-03T22:01:28;33.28;;;23.33;;
64487;SDS011;50864;45.050;39.014;2022-09-03T22:04:16;52.67;;;30.35;;
64487;SDS011;50864;45.050;39.014;2022-09-03T22:09:22;49.67;;;32.70;;
64487;SDS011;50864;45.050;39.014;2022-09-03T22:14:25;56.85;;;35.20;;
64487;SDS011;50864;45.050;39.014;2022-09-03T22:17:10;80.47;;;42.25;;
64487;SDS011;50864;45.050;39.014;2022-09-03T22:19:42;58.40;;;34.50;;
64487;SDS011;50864;45.050;39.014;2022-09-03T22:22:11;40.33;;;26.42;;
64487;SDS011;50864;45.050;39.014;2022-09-03T22:25:20;64.97;;;34.90;;
64487;SDS011;50864;45.050;39.014;2022-09-03T22:30:46;98.47;;;47.90;;
64487;SDS011;50864;45.050;39.014;2022-09-03T22:33:24;76.72;;;42.30;;
64487;SDS011;50864;45.050;39.014;2022-09-03T22:38:58;79.03;;;42.90;;
64487;SDS011;50864;45.050;39.014;2022-09-03T22:47:17;54.60;;;37.80;;
64487;SDS011;50864;45.050;39.014;2022-09-03T22:52:36;86.25;;;42.85;;
64487;SDS011;50864;45.050;39.014;2022-09-03T22:58:02;71.15;;;41.88;;
64487;SDS011;50864;45.050;39.014;2022-09-03T23:00:30;82.78;;;42.08;;
64487;SDS011;50864;45.050;39.014;2022-09-03T23:03:04;57.58;;;35.53;;
64487;SDS011;50864;45.050;39.014;2022-09-03T23:05:49;57.90;;;31.60;;
64487;SDS011;50864;45.050;39.014;2022-09-03T23:08:28;54.17;;;31.85;;
64487;SDS011;50864;45.050;39.014;2022-09-03T23:11:07;47.97;;;30.40;;
64487;SDS011;50864;45.050;39.014;2022-09-03T23:13:49;45.25;;;30.12;;
64487;SDS011;50864;45.050;39.014;2022-09-03T23:16:41;43.53;;;31.10;;
64487;SDS011;50864;45.050;39.014;2022-09-03T23:22:00;57.75;;;35.60;;
64487;SDS011;50864;45.050;39.014;2022-09-03T23:24:31;46.45;;;33.63;;
64487;SDS011;50864;45.050;39.014;2022-09-03T23:27:04;67.95;;;41.03;;
64487;SDS011;50864;45.050;39.014;2022-09-03T23:29:41;111.03;;;52.72;;
64487;SDS011;50864;45.050;39.014;2022-09-03T23:32:11;74.87;;;43.03;;
64487;SDS011;50864;45.050;39.014;2022-09-03T23:34:39;63.10;;;38.70;;
64487;SDS011;50864;45.050;39.014;2022-09-03T23:37:21;67.30;;;40.20;;
64487;SDS011;50864;45.050;39.014;2022-09-03T23:40:19;74.50;;;40.67;;
64487;SDS011;50864;45.050;39.014;2022-09-03T23:43:09;80.40;;;40.40;;
64487;SDS011;50864;45.050;39.014;2022-09-03T23:46:08;43.58;;;32.40;;
64487;SDS011;50864;45.050;39.014;2022-09-03T23:52:01;71.40;;;41.25;;
